Kalbarri, Australia
Current Conditions -  °F | °C
As of 11:00 PM on Saturday 20 Dec 2014 (Local Time) from YGEL Reporting Station
Overcast Overcast  
Wind Chill: 68°   Ceiling: 1900
Heat Index: 68°   Visibility: 6mi
Dew Point: 61°   Wind: 17mph
Humidity: 78%   Direction: 180°S
Pressure: 29.91"   Gusts: NA
Location:  27.71°S, 114.16°E
Report Text: YGEL 201500Z AUTO 18015KT 9999 // BKN019 OVC024 20/16 Q1013
Loading
Personal Weather Stations






























Interactive Weather Map New forecast layout! Learn more

10-Day Weather Forecast

Advertisements
Track Severe Weather on mobile